首页
METAR-TAF:

METAR-TAF

机场 :

黑堡, 弗吉尼亚州, 美国

纬度: 37-13N, 经度: 080-25W, 海拔: 650米

当前天气观测

该预报发布于27分钟前的02:35 UTC
风速8节,风向西转西北
温度 11°C
湿度 71%
气压 1019 hPa
能見度: 16.1公里
多云层高于3200英尺
多云层高于3800英尺
阴天层高于4400英尺

METAR: KBCB 170235Z AUTO 30008KT 10SM BKN032 BKN038 OVC044 11/06 A3008 RMK AO2 T01060060

时间: 23:02 (03:02 UTC)

预报

该预报发布于3小时和42分钟前的23:20 UTC
预报有效从17日的 00点(UTC)到 17日的 24点(UTC)
风速10节,风向西转西北,有时为19节阵风
能見度: 10公里
散云层高于5000英尺
从 17日的 0700点(UTC)
风速9节,风向西转西北
能見度: 10公里
天空无云
从 17日的 1300点(UTC)
风速16节,风向西转西北,有时为22节阵风
能見度: 10公里
天空无云

TAF: KBCB 162320Z 1700/1724 30010G19KT P6SM SCT050 FM170700 29009KT P6SM SKC FM171300 30016G22KT P6SM SKC

超过4000个机场的气象观测和天气预报(METAR&TAF报告)。

可查询的气象台以黄色和红色小点在地图上表示。

将鼠标移到小点上方,可查看气象台名称。

然后点击查看天气观测和预报。

如需切换地图:点击带黑十字的绿色按钮放大地图;点击带横线的绿色按钮缩小地图;或者点击绿色箭头查看邻近地区的地图。


METAR-TAF: